Time;durP1;ratioP1;P1;durP2;ratioP2;P2;SDS_P1;SDS_P2;PMS_P1;PMS_P2;Temp;Humidity;BMP_temperature;BMP_pressure;BME280_temperature;BME280_humidity;BME280_pressure;Samples;Min_cycle;Max_cycle;Signal;HPM_P1;HPM_P2
2021/12/24 00:01:13;;;;;;;25.05;10.60;;;-10.50;71.80;;;;;;5058688;28;20059;-43
2021/12/24 00:03:40;;;;;;;26.52;12.07;;;-10.50;71.80;;;;;;5058856;28;20061;-42
2021/12/24 00:06:07;;;;;;;23.30;11.43;;;-10.50;71.80;;;;;;5058540;28;20025;-44
2021/12/24 00:08:33;;;;;;;23.45;10.82;;;-10.50;71.80;;;;;;5058891;28;20032;-45
2021/12/24 00:11:01;;;;;;;23.27;10.73;;;-10.40;72.00;;;;;;5058522;28;20029;-45
2021/12/24 00:13:30;;;;;;;24.25;10.93;;;-10.40;72.10;;;;;;5059003;28;20025;-44
2021/12/24 00:16:05;;;;;;;23.48;9.98;;;-10.40;72.10;;;;;;5058704;28;20036;-45
2021/12/24 00:18:39;;;;;;;22.23;10.30;;;-10.40;72.10;;;;;;5058762;28;20527;-44
2021/12/24 00:37:19;;;;;;;24.38;9.68;;;-10.20;72.30;;;;;;5057394;28;20380;-43
2021/12/24 00:40:03;;;;;;;18.17;9.00;;;-10.20;72.40;;;;;;5058218;28;20028;-43
2021/12/24 00:42:29;;;;;;;20.58;9.90;;;-10.20;72.60;;;;;;5058417;28;20375;-44
2021/12/24 00:44:55;;;;;;;21.85;9.80;;;-10.20;72.60;;;;;;5058050;28;20086;-46
2021/12/24 00:47:21;;;;;;;27.63;10.30;;;-10.10;72.60;;;;;;5058149;28;20036;-45
2021/12/24 00:49:46;;;;;;;22.38;9.70;;;-10.10;72.60;;;;;;5058022;28;20037;-44
2021/12/24 00:55:03;;;;;;;20.90;9.07;;;-10.00;72.60;;;;;;5057742;28;20455;-43
2021/12/24 00:57:29;;;;;;;22.50;9.45;;;-10.00;72.50;;;;;;5057741;28;20033;-46
2021/12/24 00:59:56;;;;;;;20.17;9.57;;;-10.00;72.50;;;;;;5057800;28;20475;-46
2021/12/24 01:02:21;;;;;;;23.15;8.75;;;-10.00;72.50;;;;;;5057787;28;20107;-42
2021/12/24 01:04:47;;;;;;;23.50;9.20;;;-10.00;72.50;;;;;;5057607;28;20112;-45
2021/12/24 01:07:13;;;;;;;20.98;9.65;;;-10.00;72.40;;;;;;5056614;28;20036;-44
2021/12/24 01:09:39;;;;;;;20.77;8.30;;;-10.00;72.50;;;;;;5057683;28;20033;-44
2021/12/24 01:12:05;;;;;;;20.55;9.02;;;-9.90;72.60;;;;;;5057488;28;20033;-43
2021/12/24 01:14:31;;;;;;;21.17;8.98;;;-9.90;72.60;;;;;;5057634;28;20424;-49
2021/12/24 01:17:19;;;;;;;20.63;8.98;;;-9.90;72.50;;;;;;5057493;28;20107;-46
2021/12/24 01:19:47;;;;;;;19.45;9.07;;;-9.90;72.40;;;;;;5057140;28;20037;-46
2021/12/24 01:25:11;;;;;;;20.25;8.60;;;-9.80;72.30;;;;;;5057595;28;20028;-46
2021/12/24 01:38:22;;;;;;;18.40;8.88;;;-9.90;72.30;;;;;;5057037;28;20479;-45
2021/12/24 01:43:20;;;;;;;18.85;8.68;;;-9.90;72.40;;;;;;5057385;28;20040;-46
2021/12/24 01:45:49;;;;;;;21.02;8.60;;;-9.80;72.50;;;;;;5056497;28;20033;-45
2021/12/24 01:48:15;;;;;;;19.17;9.10;;;-9.80;72.50;;;;;;5056870;28;20032;-44
2021/12/24 01:50:42;;;;;;;16.30;8.38;;;-9.80;72.50;;;;;;5056829;28;20025;-45
2021/12/24 01:53:09;;;;;;;15.80;8.02;;;-9.80;72.60;;;;;;5056805;28;20036;-44
2021/12/24 01:55:36;;;;;;;16.83;8.43;;;-9.80;72.60;;;;;;5056405;28;20044;-45
2021/12/24 01:58:02;;;;;;;18.42;8.93;;;-9.80;72.50;;;;;;5056779;28;20036;-46
2021/12/24 02:00:36;;;;;;;18.70;9.43;;;-9.70;72.50;;;;;;5056755;28;20440;-43
2021/12/24 02:03:03;;;;;;;13.60;7.97;;;-9.70;73.00;;;;;;5056643;28;20037;-43
2021/12/24 02:05:31;;;;;;;18.15;9.23;;;-9.70;72.40;;;;;;5056085;28;20032;-43
2021/12/24 02:07:57;;;;;;;25.13;9.02;;;-9.60;72.30;;;;;;5056819;28;20032;-43
2021/12/24 02:10:24;;;;;;;21.30;8.85;;;-9.60;72.30;;;;;;5056098;28;20029;-43
2021/12/24 02:12:50;;;;;;;19.17;8.65;;;-9.60;72.30;;;;;;5056486;28;20134;-43
2021/12/24 02:15:34;;;;;;;20.45;8.80;;;-9.60;72.30;;;;;;5056528;28;20032;-44
2021/12/24 02:28:58;;;;;;;17.33;8.73;;;-9.60;72.30;;;;;;5055958;28;20151;-46
2021/12/24 02:31:26;;;;;;;20.67;8.43;;;-9.50;72.30;;;;;;5056338;28;20036;-49
2021/12/24 02:33:53;;;;;;;16.83;7.65;;;-9.50;72.30;;;;;;5056024;28;20036;-44
2021/12/24 02:36:20;;;;;;;20.27;8.63;;;-9.50;72.30;;;;;;5056125;28;20033;-45
2021/12/24 02:38:46;;;;;;;18.70;7.47;;;-9.50;72.40;;;;;;5055986;28;20033;-47
2021/12/24 02:41:12;;;;;;;19.33;8.82;;;-9.50;72.30;;;;;;5056246;28;20354;-45
2021/12/24 02:43:39;;;;;;;17.70;8.45;;;-9.40;72.30;;;;;;5055881;28;20075;-43
2021/12/24 02:46:09;;;;;;;18.70;8.32;;;-9.40;72.30;;;;;;5055826;28;20039;-45
2021/12/24 02:53:58;;;;;;;16.13;7.55;;;-9.30;72.10;;;;;;5056232;28;20036;-43
2021/12/24 02:56:29;;;;;;;17.80;8.18;;;-9.30;72.10;;;;;;5055744;28;20067;-43
2021/12/24 02:58:56;;;;;;;17.10;7.20;;;-9.30;72.00;;;;;;5055785;28;20044;-46
2021/12/24 03:01:26;;;;;;;14.68;7.22;;;-9.20;71.80;;;;;;5056063;28;20091;-46
2021/12/24 03:03:51;;;;;;;15.00;8.07;;;-9.20;71.70;;;;;;5055797;28;20454;-45
2021/12/24 03:06:20;;;;;;;18.60;8.15;;;-9.20;71.60;;;;;;5055928;28;20029;-45
2021/12/24 03:08:46;;;;;;;18.40;8.73;;;-9.20;71.60;;;;;;5055634;28;20025;-43
2021/12/24 03:11:12;;;;;;;13.60;7.35;;;-9.20;71.60;;;;;;5055922;28;20038;-44
2021/12/24 03:13:39;;;;;;;20.25;8.23;;;-9.10;71.50;;;;;;5055508;28;20401;-43
2021/12/24 03:16:06;;;;;;;25.05;9.13;;;-9.10;71.40;;;;;;5055584;28;20025;-42
2021/12/24 03:18:34;;;;;;;20.30;8.75;;;-9.10;71.40;;;;;;5055597;28;20040;-44
2021/12/24 03:26:45;;;;;;;22.67;9.13;;;-9.00;71.80;;;;;;5063224;28;20045;-43
2021/12/24 03:29:13;;;;;;;17.70;8.38;;;-9.00;71.30;;;;;;5059521;28;20040;-44
2021/12/24 03:31:40;;;;;;;19.67;8.55;;;-9.00;71.40;;;;;;5059516;28;20040;-45
2021/12/24 03:34:07;;;;;;;20.17;9.88;;;-9.00;71.50;;;;;;5059191;28;20029;-49
2021/12/24 03:36:33;;;;;;;18.33;8.07;;;-8.90;71.60;;;;;;5059477;28;20029;-44
2021/12/24 03:39:00;;;;;;;20.77;9.70;;;-8.90;71.60;;;;;;5058816;28;20029;-43
2021/12/24 03:41:26;;;;;;;17.42;8.45;;;-8.90;71.60;;;;;;5059159;28;20448;-44
2021/12/24 03:43:52;;;;;;;19.63;9.55;;;-8.90;71.50;;;;;;5059151;28;20033;-43
2021/12/24 03:46:24;;;;;;;21.23;8.80;;;-8.80;71.50;;;;;;5058819;28;20056;-44
2021/12/24 03:49:00;;;;;;;22.88;10.45;;;-8.80;71.40;;;;;;5058811;28;20109;-43
2021/12/24 03:56:59;;;;;;;29.55;11.30;;;-8.70;71.30;;;;;;5058719;28;20060;-43
2021/12/24 03:59:24;;;;;;;25.05;12.55;;;-8.70;71.20;;;;;;5058631;28;20352;-44
2021/12/24 04:01:50;;;;;;;24.13;12.07;;;-8.60;71.10;;;;;;5058997;28;20032;-44
2021/12/24 04:04:16;;;;;;;26.25;11.70;;;-8.60;71.20;;;;;;5058754;28;20040;-47
2021/12/24 04:06:41;;;;;;;39.25;15.50;;;-8.60;71.20;;;;;;5059024;28;20040;-44
2021/12/24 04:09:08;;;;;;;42.08;16.52;;;-8.50;71.10;;;;;;5058580;28;20458;-43
2021/12/24 04:11:36;;;;;;;41.75;17.15;;;-8.50;71.10;;;;;;5058692;28;20056;-43
2021/12/24 04:14:01;;;;;;;42.22;20.73;;;-8.40;71.00;;;;;;5058654;28;20389;-43
2021/12/24 04:16:28;;;;;;;47.83;23.30;;;-8.40;70.90;;;;;;5058654;28;20068;-43
2021/12/24 04:27:28;;;;;;;38.60;17.80;;;-8.20;70.70;;;;;;5056439;28;20123;-46
2021/12/24 04:30:04;;;;;;;46.00;19.92;;;-8.20;70.50;;;;;;5057868;28;20048;-44
2021/12/24 04:32:51;;;;;;;46.28;17.52;;;-8.20;70.80;;;;;;5057923;28;20055;-45
2021/12/24 04:38:29;;;;;;;35.83;14.95;;;-8.20;70.90;;;;;;5058466;28;20166;-43
2021/12/24 04:51:57;;;;;;;34.00;13.35;;;-7.80;71.00;;;;;;5057898;28;20078;-44
2021/12/24 05:05:18;;;;;;;30.05;14.25;;;-7.60;70.20;;;;;;5057578;28;20059;-46
2021/12/24 05:08:09;;;;;;;26.92;13.77;;;-7.60;70.20;;;;;;5057919;28;20298;-45
2021/12/24 05:10:37;;;;;;;25.80;12.88;;;-7.50;70.20;;;;;;5057241;28;20123;-44
2021/12/24 05:13:03;;;;;;;25.30;12.23;;;-7.50;70.30;;;;;;5057847;28;20025;-48
2021/12/24 05:15:29;;;;;;;28.92;12.38;;;-7.40;70.30;;;;;;5057691;28;20405;-46
2021/12/24 05:23:08;;;;;;;25.75;13.55;;;-7.30;70.40;;;;;;5057392;28;20032;-44
2021/12/24 05:25:42;;;;;;;27.92;13.35;;;-7.30;70.30;;;;;;5056740;28;20037;-44
2021/12/24 05:28:08;;;;;;;26.15;13.55;;;-7.20;70.20;;;;;;5057155;28;20029;-45
2021/12/24 05:30:33;;;;;;;26.83;14.82;;;-7.20;70.10;;;;;;5056976;28;20086;-45
2021/12/24 05:32:59;;;;;;;25.50;13.20;;;-7.20;70.10;;;;;;5057150;28;20405;-43
2021/12/24 05:35:25;;;;;;;25.50;14.57;;;-7.10;70.30;;;;;;5057198;28;20032;-44
2021/12/24 05:37:50;;;;;;;24.48;13.82;;;-7.10;70.20;;;;;;5056963;28;20025;-47
2021/12/24 05:40:16;;;;;;;28.23;15.65;;;-7.10;70.20;;;;;;5056824;28;20305;-43
2021/12/24 05:42:42;;;;;;;26.33;13.23;;;-7.10;70.40;;;;;;5057023;28;20322;-46
2021/12/24 05:45:10;;;;;;;30.83;15.63;;;-7.00;70.50;;;;;;5055688;28;20320;-47
2021/12/24 05:47:36;;;;;;;35.40;16.25;;;-7.00;70.40;;;;;;5056875;28;20321;-43
2021/12/24 05:50:05;;;;;;;46.45;20.70;;;-6.90;70.50;;;;;;5056750;28;20025;-44
2021/12/24 05:52:32;;;;;;;56.40;23.33;;;-6.90;70.70;;;;;;5056804;28;20035;-46
2021/12/24 05:54:58;;;;;;;68.35;25.73;;;-6.80;70.70;;;;;;5056492;28;20037;-45
2021/12/24 05:57:23;;;;;;;65.90;23.98;;;-6.70;70.70;;;;;;5056518;28;20227;-47
2021/12/24 05:59:49;;;;;;;68.13;23.55;;;-6.60;70.70;;;;;;5056463;28;20057;-44
2021/12/24 06:02:15;;;;;;;62.05;22.38;;;-6.50;70.70;;;;;;5055671;28;20349;-43
2021/12/24 06:04:40;;;;;;;61.47;21.65;;;-6.50;70.40;;;;;;5056298;28;20024;-45
2021/12/24 06:07:06;;;;;;;39.63;15.73;;;-6.40;70.40;;;;;;5056253;28;20123;-45
2021/12/24 06:09:32;;;;;;;46.10;17.67;;;-6.40;70.30;;;;;;5056354;28;20104;-46
2021/12/24 06:11:57;;;;;;;37.72;15.65;;;-6.30;70.20;;;;;;5056470;28;20366;-43
2021/12/24 06:14:23;;;;;;;35.15;15.00;;;-6.30;70.20;;;;;;5056338;28;20305;-46
2021/12/24 06:16:59;;;;;;;44.47;15.68;;;-6.30;70.20;;;;;;5056261;28;20037;-46
2021/12/24 06:19:26;;;;;;;58.53;20.02;;;-6.20;70.10;;;;;;5056048;28;20407;-45
2021/12/24 06:21:56;;;;;;;56.65;22.15;;;-6.20;69.90;;;;;;5056200;28;20037;-45
2021/12/24 06:24:22;;;;;;;65.95;23.33;;;-6.20;70.50;;;;;;5049448;28;20405;-43
2021/12/24 06:26:49;;;;;;;66.93;22.05;;;-6.20;70.00;;;;;;5036160;28;20034;-47
2021/12/24 06:29:16;;;;;;;58.92;24.10;;;-6.20;70.10;;;;;;5035962;28;20037;-43
2021/12/24 06:31:41;;;;;;;61.50;23.15;;;-6.10;70.30;;;;;;5035918;28;20064;-44
2021/12/24 06:34:07;;;;;;;60.28;21.13;;;-6.00;70.30;;;;;;5035555;28;20029;-44
2021/12/24 06:36:36;;;;;;;61.35;24.02;;;-6.00;70.20;;;;;;5035860;28;20439;-44
2021/12/24 06:39:04;;;;;;;68.38;24.00;;;-5.90;69.90;;;;;;5035919;28;20037;-43
2021/12/24 06:41:30;;;;;;;59.00;20.67;;;-5.90;69.90;;;;;;5036079;28;20168;-44
2021/12/24 06:43:56;;;;;;;69.43;25.02;;;-5.80;69.80;;;;;;5035652;28;20318;-47
2021/12/24 06:46:22;;;;;;;68.10;25.85;;;-5.80;69.70;;;;;;5035428;28;20042;-44
2021/12/24 06:48:53;;;;;;;68.63;26.77;;;-5.80;69.60;;;;;;5035577;28;20037;-44
2021/12/24 06:51:19;;;;;;;48.78;19.48;;;-5.70;70.30;;;;;;5035353;28;20040;-44
2021/12/24 06:53:45;;;;;;;48.90;20.02;;;-5.70;69.60;;;;;;5035403;28;20079;-44
2021/12/24 06:56:11;;;;;;;58.35;22.48;;;-5.60;69.70;;;;;;5034965;28;20053;-45
2021/12/24 06:58:37;;;;;;;50.92;20.17;;;-5.60;69.80;;;;;;5035266;28;20033;-43
2021/12/24 07:01:03;;;;;;;45.08;17.45;;;-5.50;69.80;;;;;;5035508;28;20072;-46
2021/12/24 07:03:28;;;;;;;36.53;16.25;;;-5.50;69.80;;;;;;5045542;28;20041;-45
2021/12/24 07:05:54;;;;;;;33.22;13.10;;;-5.40;69.70;;;;;;5036297;28;20167;-48
2021/12/24 07:08:20;;;;;;;27.75;14.25;;;-5.30;69.80;;;;;;5035288;28;20410;-45
2021/12/24 07:10:45;;;;;;;36.33;15.02;;;-5.30;69.60;;;;;;5035475;28;20440;-44
2021/12/24 07:13:11;;;;;;;24.13;12.73;;;-5.20;69.60;;;;;;5035292;28;20105;-45
2021/12/24 07:15:37;;;;;;;28.02;13.27;;;-5.10;69.20;;;;;;5035187;28;20033;-45
2021/12/24 07:18:02;;;;;;;36.78;14.63;;;-5.00;69.20;;;;;;5035360;28;20152;-45
2021/12/24 07:20:28;;;;;;;29.23;13.65;;;-4.90;69.10;;;;;;5035268;28;20069;-44
2021/12/24 07:22:54;;;;;;;23.17;11.57;;;-4.90;69.00;;;;;;5039807;28;20041;-44
2021/12/24 07:25:19;;;;;;;25.65;11.63;;;-4.80;68.80;;;;;;5055079;28;20029;-44
2021/12/24 07:27:45;;;;;;;23.42;11.32;;;-4.70;68.50;;;;;;5054886;28;20041;-45
2021/12/24 07:30:12;;;;;;;22.52;10.63;;;-4.70;68.10;;;;;;5055002;28;20389;-44
2021/12/24 07:32:39;;;;;;;22.70;11.18;;;-4.70;67.80;;;;;;5054959;28;20037;-44
2021/12/24 07:35:06;;;;;;;27.05;12.70;;;-4.70;67.50;;;;;;5055091;28;20024;-44
2021/12/24 07:37:32;;;;;;;31.52;13.43;;;-4.60;67.80;;;;;;5054798;28;20064;-44
2021/12/24 07:39:57;;;;;;;23.33;11.27;;;-4.60;67.70;;;;;;5054661;28;20091;-44
2021/12/24 07:42:25;;;;;;;26.05;12.43;;;-4.60;67.80;;;;;;5054892;28;20078;-48
2021/12/24 07:44:51;;;;;;;25.75;13.10;;;-4.50;68.00;;;;;;5055066;28;20029;-44
2021/12/24 07:47:27;;;;;;;27.92;12.48;;;-4.50;67.60;;;;;;5054914;28;20079;-44
2021/12/24 07:50:02;;;;;;;27.65;13.93;;;-4.50;67.50;;;;;;5054411;28;20025;-45
2021/12/24 07:52:28;;;;;;;32.20;14.48;;;-4.40;67.50;;;;;;5054490;28;20033;-44
2021/12/24 07:54:54;;;;;;;31.65;14.07;;;-4.40;67.40;;;;;;5054692;28;20033;-45
2021/12/24 07:57:21;;;;;;;27.08;11.82;;;-4.40;67.40;;;;;;5054690;28;20040;-47
2021/12/24 07:59:47;;;;;;;26.92;13.23;;;-4.40;67.60;;;;;;5054765;28;20302;-44
2021/12/24 08:02:22;;;;;;;24.20;11.35;;;-4.40;67.70;;;;;;5054725;28;20036;-45
2021/12/24 08:04:48;;;;;;;24.08;12.05;;;-4.30;67.80;;;;;;5054491;28;20073;-46
2021/12/24 08:07:15;;;;;;;24.08;11.52;;;-4.30;67.60;;;;;;5054625;28;20095;-46
2021/12/24 08:09:42;;;;;;;34.90;14.60;;;-4.20;67.80;;;;;;5050517;28;20043;-43
2021/12/24 08:12:10;;;;;;;27.88;12.48;;;-4.20;68.00;;;;;;5038172;28;20116;-45
2021/12/24 08:14:36;;;;;;;26.02;12.95;;;-4.10;68.00;;;;;;5038626;28;20025;-45
2021/12/24 08:17:03;;;;;;;42.95;18.13;;;-4.00;68.10;;;;;;5037159;28;20036;-43
2021/12/24 08:19:29;;;;;;;72.78;34.08;;;-4.00;68.10;;;;;;5038225;28;20036;-43
2021/12/24 08:21:56;;;;;;;25.92;11.60;;;-4.00;68.10;;;;;;5038364;28;20036;-44
2021/12/24 08:24:21;;;;;;;46.75;21.50;;;-3.90;68.70;;;;;;5037830;28;20033;-44
2021/12/24 08:26:47;;;;;;;62.80;28.15;;;-3.80;68.30;;;;;;5038157;28;20032;-46
2021/12/24 08:29:13;;;;;;;21.02;10.68;;;-3.80;68.40;;;;;;5037935;28;20109;-44
2021/12/24 08:31:39;;;;;;;28.10;11.73;;;-3.70;68.40;;;;;;5037982;28;20024;-45
2021/12/24 08:34:05;;;;;;;23.10;10.68;;;-3.80;68.50;;;;;;5037351;28;20034;-46
2021/12/24 08:36:32;;;;;;;27.63;11.07;;;-3.80;68.60;;;;;;5038028;28;20030;-45
2021/12/24 08:38:57;;;;;;;29.10;11.60;;;-3.80;68.70;;;;;;5038040;28;20041;-44
2021/12/24 08:41:24;;;;;;;54.53;18.25;;;-3.90;69.00;;;;;;5037713;28;20430;-44
2021/12/24 08:43:50;;;;;;;23.60;11.25;;;-3.90;69.30;;;;;;5037882;28;20060;-44
2021/12/24 08:46:16;;;;;;;34.88;14.73;;;-3.90;69.80;;;;;;5038056;28;20033;-43
2021/12/24 08:48:42;;;;;;;24.63;11.07;;;-3.90;70.00;;;;;;5037984;28;20074;-44
2021/12/24 08:51:07;;;;;;;33.50;14.05;;;-3.90;70.10;;;;;;5037812;28;20033;-46
2021/12/24 08:53:34;;;;;;;27.40;11.50;;;-3.90;70.20;;;;;;5037639;28;20021;-43
2021/12/24 08:55:59;;;;;;;23.42;11.23;;;-4.00;70.40;;;;;;5036798;28;20057;-46
2021/12/24 08:58:25;;;;;;;32.15;13.82;;;-3.90;70.80;;;;;;5037345;28;20029;-43
2021/12/24 09:00:51;;;;;;;34.03;15.02;;;-4.00;71.00;;;;;;5036884;28;20341;-45
2021/12/24 09:03:19;;;;;;;26.23;13.15;;;-3.90;71.20;;;;;;5037736;28;20053;-43
2021/12/24 09:05:45;;;;;;;34.13;14.25;;;-3.90;71.20;;;;;;5037321;28;20095;-43
2021/12/24 09:08:11;;;;;;;31.50;13.55;;;-3.90;71.30;;;;;;5037508;28;20468;-45
2021/12/24 09:10:37;;;;;;;32.75;15.45;;;-3.90;71.40;;;;;;5037114;28;20033;-43
2021/12/24 09:13:03;;;;;;;31.15;14.68;;;-3.80;71.50;;;;;;5037623;28;20370;-44
2021/12/24 09:15:30;;;;;;;27.48;12.32;;;-3.80;71.50;;;;;;5036857;28;20298;-45
2021/12/24 09:18:01;;;;;;;30.77;13.02;;;-3.70;71.70;;;;;;5037147;28;20079;-46
2021/12/24 09:20:34;;;;;;;38.35;18.02;;;-3.70;71.60;;;;;;5037209;28;20065;-45
2021/12/24 09:23:01;;;;;;;41.33;16.30;;;-3.70;71.70;;;;;;5037440;28;20064;-45
2021/12/24 09:25:28;;;;;;;27.65;13.43;;;-3.60;71.90;;;;;;5037147;28;20038;-44
2021/12/24 09:27:55;;;;;;;39.15;15.30;;;-3.60;71.90;;;;;;5037172;28;20125;-44
2021/12/24 09:30:21;;;;;;;25.60;12.35;;;-3.50;71.80;;;;;;5037210;28;20029;-47
2021/12/24 09:32:47;;;;;;;30.30;13.43;;;-3.50;71.50;;;;;;5037112;28;20086;-44
2021/12/24 09:35:13;;;;;;;29.23;12.15;;;-3.50;71.50;;;;;;5036917;28;20038;-45
2021/12/24 09:37:40;;;;;;;24.17;12.43;;;-3.50;71.60;;;;;;5036983;28;20046;-44
2021/12/24 09:40:09;;;;;;;26.25;12.45;;;-3.40;71.70;;;;;;5036828;28;20030;-46
2021/12/24 09:42:35;;;;;;;29.92;12.95;;;-3.40;71.80;;;;;;5037010;28;20341;-43
2021/12/24 09:45:02;;;;;;;33.53;14.65;;;-3.40;71.80;;;;;;5036859;28;20025;-43
2021/12/24 09:47:28;;;;;;;27.10;12.30;;;-3.30;71.80;;;;;;5036622;28;20073;-45
2021/12/24 09:49:54;;;;;;;31.50;14.20;;;-3.30;71.80;;;;;;5036412;28;20057;-45
2021/12/24 09:52:21;;;;;;;32.70;11.23;;;-3.30;71.80;;;;;;5036753;28;20127;-44
2021/12/24 09:54:48;;;;;;;25.80;13.38;;;-3.20;71.80;;;;;;5036394;28;20028;-49
2021/12/24 09:57:14;;;;;;;37.47;14.35;;;-3.20;71.40;;;;;;5036135;28;20058;-44
2021/12/24 09:59:40;;;;;;;32.78;12.95;;;-3.20;71.50;;;;;;5040283;28;20472;-45
2021/12/24 10:02:15;;;;;;;47.28;17.38;;;-3.20;71.90;;;;;;5043347;28;20060;-45
2021/12/24 10:04:43;;;;;;;37.65;15.40;;;-3.20;72.10;;;;;;5036153;28;20048;-47
2021/12/24 10:07:11;;;;;;;26.92;13.60;;;-3.20;72.10;;;;;;5036350;28;20121;-46
2021/12/24 10:09:40;;;;;;;30.10;13.75;;;-3.10;72.00;;;;;;5036096;28;20029;-45
2021/12/24 10:12:14;;;;;;;37.85;14.45;;;-3.10;72.00;;;;;;5036336;28;20029;-47
2021/12/24 10:14:51;;;;;;;30.80;14.65;;;-3.00;72.30;;;;;;5035925;28;20076;-46
2021/12/24 10:17:18;;;;;;;27.48;12.75;;;-3.00;71.90;;;;;;5036047;28;20389;-44
2021/12/24 10:19:46;;;;;;;34.03;14.15;;;-3.00;71.70;;;;;;5035731;28;20048;-44
2021/12/24 10:22:12;;;;;;;45.75;18.25;;;-3.00;71.90;;;;;;5035217;28;20045;-44
2021/12/24 10:24:38;;;;;;;30.08;14.35;;;-2.90;72.20;;;;;;5055777;28;20035;-43
2021/12/24 10:27:04;;;;;;;29.92;14.63;;;-2.90;72.00;;;;;;5055410;28;20132;-44
2021/12/24 10:29:37;;;;;;;32.65;14.35;;;-2.90;72.10;;;;;;5055441;28;20108;-44
2021/12/24 10:32:20;;;;;;;41.20;16.20;;;-2.90;72.10;;;;;;5054982;28;20060;-44
2021/12/24 10:34:46;;;;;;;32.55;15.90;;;-2.80;72.30;;;;;;5055510;28;20091;-44
2021/12/24 10:37:24;;;;;;;37.05;16.45;;;-2.80;72.40;;;;;;5055485;28;20036;-44
2021/12/24 10:40:01;;;;;;;39.15;16.98;;;-2.70;72.30;;;;;;5055489;28;20166;-45
2021/12/24 10:42:36;;;;;;;38.97;19.25;;;-2.70;72.40;;;;;;5054937;28;20037;-45
2021/12/24 10:45:08;;;;;;;48.22;20.15;;;-2.60;72.40;;;;;;5055352;28;20352;-44
2021/12/24 10:47:39;;;;;;;53.65;21.52;;;-2.50;72.50;;;;;;5055318;28;20098;-44
2021/12/24 10:50:27;;;;;;;44.53;19.58;;;-2.50;72.30;;;;;;5055593;28;20032;-43
2021/12/24 10:53:20;;;;;;;53.70;21.17;;;-2.40;72.30;;;;;;5055332;28;20484;-44
2021/12/24 10:55:49;;;;;;;49.67;19.23;;;-2.40;72.20;;;;;;5053914;28;20064;-44
2021/12/24 10:58:17;;;;;;;57.17;24.20;;;-2.30;72.40;;;;;;5054999;28;20024;-43
2021/12/24 11:00:50;;;;;;;58.17;26.70;;;-2.30;72.30;;;;;;5054809;28;20053;-43
2021/12/24 11:03:21;;;;;;;70.45;22.13;;;-2.30;72.30;;;;;;5055352;28;20048;-44
2021/12/24 11:05:49;;;;;;;54.92;24.27;;;-2.20;72.30;;;;;;5054732;28;20029;-45
2021/12/24 11:08:21;;;;;;;60.33;23.08;;;-2.20;72.20;;;;;;5055247;28;20063;-44
2021/12/24 11:10:54;;;;;;;51.75;22.23;;;-2.20;72.50;;;;;;5055016;28;20078;-44
2021/12/24 11:13:29;;;;;;;69.65;26.42;;;-2.20;72.60;;;;;;5055430;28;20048;-43
2021/12/24 11:15:56;;;;;;;58.88;23.58;;;-2.10;72.70;;;;;;5055144;28;20040;-43
2021/12/24 11:18:28;;;;;;;57.55;23.52;;;-2.00;72.70;;;;;;5055129;28;20329;-44
2021/12/24 11:21:06;;;;;;;54.35;24.35;;;-2.00;72.60;;;;;;5054900;28;20041;-43
2021/12/24 11:23:34;;;;;;;52.33;22.25;;;-2.00;72.30;;;;;;5054907;28;20171;-44
2021/12/24 11:26:06;;;;;;;53.63;20.70;;;-2.00;72.90;;;;;;5054618;28;20044;-43
2021/12/24 11:28:33;;;;;;;56.50;23.67;;;-1.90;72.20;;;;;;5055181;28;20036;-42
2021/12/24 11:31:03;;;;;;;51.85;22.63;;;-2.00;71.80;;;;;;5055577;28;20321;-45
2021/12/24 11:33:32;;;;;;;61.03;20.90;;;-2.00;72.10;;;;;;5050553;28;20314;-44
2021/12/24 11:35:59;;;;;;;64.45;25.67;;;-1.90;72.30;;;;;;5052145;28;20037;-43
2021/12/24 11:38:28;;;;;;;58.95;23.65;;;-2.00;72.30;;;;;;5045935;28;20029;-45
2021/12/24 11:40:56;;;;;;;51.75;22.80;;;-1.90;73.10;;;;;;5053623;28;20123;-44
2021/12/24 11:43:25;;;;;;;60.85;23.05;;;-1.90;72.40;;;;;;5058380;28;20040;-42
2021/12/24 11:45:52;;;;;;;56.58;21.63;;;-1.90;72.40;;;;;;5058381;28;20037;-44
2021/12/24 11:48:17;;;;;;;68.78;24.65;;;-1.80;72.30;;;;;;5058654;28;20053;-42
2021/12/24 11:50:43;;;;;;;56.38;22.85;;;-1.80;72.20;;;;;;5058286;28;20067;-43
2021/12/24 11:53:15;;;;;;;56.65;23.52;;;-1.80;72.00;;;;;;5058383;28;20489;-42
2021/12/24 11:55:44;;;;;;;65.78;24.30;;;-1.70;72.10;;;;;;5057982;28;20445;-42
2021/12/24 11:58:23;;;;;;;65.72;22.08;;;-1.70;72.10;;;;;;5058181;28;20328;-46
2021/12/24 12:00:54;;;;;;;54.13;22.50;;;-1.70;72.00;;;;;;5057869;28;20033;-44
2021/12/24 12:03:32;;;;;;;56.67;21.60;;;-1.70;71.80;;;;;;5058418;28;20033;-42
2021/12/24 12:05:58;;;;;;;48.65;20.60;;;-1.70;71.60;;;;;;5058264;28;20368;-45
2021/12/24 12:08:26;;;;;;;46.22;19.75;;;-1.70;71.50;;;;;;5058452;28;20348;-43
2021/12/24 12:10:59;;;;;;;56.17;20.30;;;-1.70;71.50;;;;;;5057792;28;20048;-43
2021/12/24 12:13:34;;;;;;;53.80;19.83;;;-1.70;71.50;;;;;;5058086;28;20414;-43
2021/12/24 12:16:00;;;;;;;66.20;24.92;;;-1.70;71.30;;;;;;5058373;28;20049;-42
2021/12/24 12:18:30;;;;;;;58.42;20.48;;;-1.80;71.60;;;;;;5057936;28;20037;-43
2021/12/24 12:21:41;;;;;;;64.03;25.48;;;-1.80;71.70;;;;;;5057961;28;20110;-43
2021/12/24 12:26:41;;;;;;;53.30;21.55;;;-1.80;71.90;;;;;;5058362;28;20033;-43
2021/12/24 12:29:27;;;;;;;52.53;22.45;;;-1.70;71.90;;;;;;5057613;28;20081;-44
2021/12/24 12:32:11;;;;;;;63.72;23.52;;;-1.70;71.60;;;;;;5050857;28;20364;-43
2021/12/24 12:34:43;;;;;;;57.90;24.52;;;-1.70;71.60;;;;;;5045122;28;20104;-43
2021/12/24 12:37:12;;;;;;;66.40;24.30;;;-1.70;71.40;;;;;;5040346;28;20029;-43
2021/12/24 12:39:38;;;;;;;53.97;21.40;;;-1.80;71.40;;;;;;5037919;28;20025;-46
2021/12/24 12:42:04;;;;;;;55.00;21.85;;;-1.80;71.80;;;;;;5037668;28;20033;-46
2021/12/24 12:44:32;;;;;;;62.53;24.92;;;-1.80;72.00;;;;;;5037797;28;20029;-44
2021/12/24 12:47:13;;;;;;;62.67;24.55;;;-1.70;72.10;;;;;;5037658;28;20033;-43
2021/12/24 12:49:39;;;;;;;60.30;24.73;;;-1.70;72.20;;;;;;5037609;28;20024;-47
2021/12/24 12:52:31;;;;;;;54.08;24.27;;;-1.60;72.10;;;;;;5037460;28;20105;-44
2021/12/24 12:54:58;;;;;;;55.95;22.40;;;-1.60;72.00;;;;;;5036476;28;20091;-45
2021/12/24 12:57:29;;;;;;;70.75;24.80;;;-1.60;72.10;;;;;;5037711;28;20076;-48
2021/12/24 13:00:18;;;;;;;;;;;-1.60;71.80;;;;;;5037635;28;20375;-44
2021/12/24 13:02:56;;;;;;;53.95;21.73;;;-1.60;71.50;;;;;;5037177;28;19931;-45
2021/12/24 13:05:24;;;;;;;64.68;25.10;;;-1.60;71.70;;;;;;5037125;28;20029;-45
2021/12/24 13:07:49;;;;;;;62.80;24.52;;;-1.60;71.70;;;;;;5037106;28;20123;-46
2021/12/24 13:10:19;;;;;;;57.70;24.30;;;-1.60;71.80;;;;;;5037250;28;20416;-47
2021/12/24 13:12:45;;;;;;;68.47;27.33;;;-1.60;71.90;;;;;;5037221;28;20029;-43
2021/12/24 13:15:16;;;;;;;83.75;35.90;;;-1.60;72.10;;;;;;5037321;28;20032;-43
2021/12/24 13:17:46;;;;;;;;;;;-1.60;72.10;;;;;;5037737;28;20083;-43
2021/12/24 13:22:26;;;;;;;63.80;26.38;;;-1.60;72.10;;;;;;5037195;28;19916;-45
2021/12/24 13:23:19;;;;;;;61.00;22.10;;;-1.60;72.10;;;;;;5037556;28;20033;-48
2021/12/24 13:25:44;;;;;;;59.67;21.55;;;-1.60;72.10;;;;;;5036751;28;20029;-45
2021/12/24 13:28:10;;;;;;;53.08;24.50;;;-1.60;72.10;;;;;;5036566;28;20361;-44
2021/12/24 13:30:36;;;;;;;41.25;18.77;;;-1.70;72.20;;;;;;5036413;28;20049;-43
2021/12/24 13:33:06;;;;;;;36.85;18.20;;;-1.70;72.30;;;;;;5036720;28;20071;-44
2021/12/24 13:35:48;;;;;;;42.33;17.40;;;-1.70;72.40;;;;;;5036827;28;20030;-47
2021/12/24 13:38:16;;;;;;;40.67;20.55;;;-1.70;72.60;;;;;;5036390;28;20100;-45
2021/12/24 13:40:42;;;;;;;32.58;17.85;;;-1.70;72.80;;;;;;5036153;28;20116;-45
2021/12/24 13:43:12;;;;;;;33.20;15.40;;;-1.70;73.00;;;;;;5036348;28;20414;-43
2021/12/24 13:45:41;;;;;;;27.70;14.43;;;-1.70;73.00;;;;;;5036750;28;20334;-45
2021/12/24 13:48:16;;;;;;;28.95;14.25;;;-1.60;72.90;;;;;;5036296;28;20394;-45
2021/12/24 13:56:16;;;;;;;25.70;13.50;;;-1.60;73.10;;;;;;5036366;28;20427;-43
2021/12/24 13:58:58;;;;;;;26.45;14.02;;;-1.60;73.20;;;;;;5036121;28;20102;-46
2021/12/24 14:01:26;;;;;;;30.48;13.77;;;-1.60;73.30;;;;;;5036133;28;20048;-44
2021/12/24 14:03:52;;;;;;;23.65;12.82;;;-1.60;73.30;;;;;;5036415;28;20033;-46
2021/12/24 14:06:18;;;;;;;23.90;12.63;;;-1.60;73.40;;;;;;5035273;28;20477;-45
2021/12/24 14:08:44;;;;;;;27.67;14.00;;;-1.60;73.50;;;;;;5035998;28;20029;-43
2021/12/24 14:11:21;;;;;;;29.25;14.05;;;-1.60;73.60;;;;;;5036801;28;20034;-45
2021/12/24 14:13:56;;;;;;;25.67;13.65;;;-1.60;73.60;;;;;;5036248;28;20036;-45
2021/12/24 14:16:59;;;;;;;31.10;14.52;;;-1.60;73.60;;;;;;5036091;28;20033;-44
2021/12/24 14:19:19;;;;;;;28.63;14.88;;;-1.60;73.70;;;;;;5035892;28;20042;-43
2021/12/24 14:21:49;;;;;;;36.67;17.13;;;-1.60;73.90;;;;;;5035888;28;20505;-46
2021/12/24 14:24:23;;;;;;;35.25;15.25;;;-1.60;74.00;;;;;;5035638;28;20406;-46
2021/12/24 14:26:58;;;;;;;32.67;14.40;;;-1.50;74.20;;;;;;5034972;28;20044;-44